Time;durP1;ratioP1;P1;durP2;ratioP2;P2;SDS_P1;SDS_P2;PMS_P1;PMS_P2;Temp;Humidity;BMP_temperature;BMP_pressure;BME280_temperature;BME280_humidity;BME280_pressure;Samples;Min_cycle;Max_cycle;Signal;HPM_P1;HPM_P2
2022/03/26 00:01:44;;;;;;;30.15;14.90;;;;;;;;;;5093535;28;20032;-62
2022/03/26 00:04:11;;;;;;;28.92;14.77;;;;;;;;;;5093658;28;20085;-61
2022/03/26 00:06:38;;;;;;;28.55;14.13;;;;;;;;;;5093812;28;20044;-62
2022/03/26 00:09:04;;;;;;;26.02;14.80;;;;;;;;;;5093638;28;20040;-61
2022/03/26 00:11:31;;;;;;;25.35;14.52;;;;;;;;;;5093345;28;20060;-61
2022/03/26 00:13:57;;;;;;;29.42;15.50;;;;;;;;;;5093557;28;20046;-61
2022/03/26 00:16:23;;;;;;;29.70;15.57;;;;;;;;;;5093720;28;20071;-61
2022/03/26 00:18:49;;;;;;;24.23;14.15;;;;;;;;;;5093166;28;20039;-61
2022/03/26 00:21:15;;;;;;;29.30;14.85;;;;;;;;;;5093659;28;20036;-61
2022/03/26 00:23:41;;;;;;;29.67;15.52;;;;;;;;;;5093199;28;20047;-62
2022/03/26 00:26:10;;;;;;;31.42;16.17;;;;;;;;;;5093179;28;20047;-61
2022/03/26 00:28:37;;;;;;;28.85;15.02;;;;;;;;;;5093255;28;20058;-61
2022/03/26 00:31:04;;;;;;;32.25;15.93;;;;;;;;;;5093261;28;20128;-61
2022/03/26 00:33:30;;;;;;;28.88;15.65;;;;;;;;;;5092988;28;20577;-61
2022/03/26 00:35:57;;;;;;;31.23;16.92;;;;;;;;;;5093305;28;20036;-62
2022/03/26 00:38:23;;;;;;;31.13;15.95;;;;;;;;;;5093319;28;20044;-61
2022/03/26 00:40:49;;;;;;;31.65;16.52;;;;;;;;;;5093154;28;20444;-61
2022/03/26 00:43:15;;;;;;;34.42;16.85;;;;;;;;;;5091817;28;20032;-63
2022/03/26 00:45:41;;;;;;;27.80;15.48;;;;;;;;;;5092748;28;20036;-60
2022/03/26 00:48:08;;;;;;;32.35;17.60;;;;;;;;;;5093115;28;20375;-62
2022/03/26 00:50:34;;;;;;;28.50;16.55;;;;;;;;;;5092731;28;20032;-61
2022/03/26 00:53:00;;;;;;;27.50;15.57;;;;;;;;;;5092879;28;20039;-60
2022/03/26 00:55:26;;;;;;;27.17;14.13;;;;;;;;;;5093045;28;20140;-61
2022/03/26 00:57:52;;;;;;;31.70;15.95;;;;;;;;;;5092551;28;20040;-61
2022/03/26 01:00:18;;;;;;;32.20;15.38;;;;;;;;;;5092525;28;20487;-61
2022/03/26 01:02:44;;;;;;;30.35;16.77;;;;;;;;;;5087717;28;20429;-61
2022/03/26 01:05:10;;;;;;;34.85;15.68;;;;;;;;;;5092023;28;20069;-60
2022/03/26 01:07:37;;;;;;;33.72;15.90;;;;;;;;;;5092210;28;20052;-61
2022/03/26 01:10:03;;;;;;;35.75;15.98;;;;;;;;;;5092110;28;20593;-61
2022/03/26 01:12:30;;;;;;;29.42;15.52;;;;;;;;;;5092261;28;20510;-61
2022/03/26 01:14:56;;;;;;;28.33;15.73;;;;;;;;;;5073996;28;20054;-61
2022/03/26 01:17:22;;;;;;;28.52;14.55;;;;;;;;;;5092136;28;20051;-61
2022/03/26 01:19:48;;;;;;;28.38;15.80;;;;;;;;;;5091898;28;20398;-61
2022/03/26 01:22:14;;;;;;;29.88;16.52;;;;;;;;;;5092057;28;20512;-61
2022/03/26 01:24:40;;;;;;;31.17;15.70;;;;;;;;;;5092071;28;20379;-62
2022/03/26 01:27:07;;;;;;;27.90;16.58;;;;;;;;;;5091720;28;20033;-61
2022/03/26 01:29:33;;;;;;;29.05;16.60;;;;;;;;;;5091885;28;20043;-60
2022/03/26 01:31:59;;;;;;;29.35;15.30;;;;;;;;;;5092047;28;20405;-61
2022/03/26 01:34:27;;;;;;;30.00;16.30;;;;;;;;;;5091850;28;20032;-61
2022/03/26 01:36:53;;;;;;;29.48;15.75;;;;;;;;;;5091601;28;20048;-61
2022/03/26 01:39:20;;;;;;;30.92;15.70;;;;;;;;;;5091814;28;20123;-61
2022/03/26 01:41:47;;;;;;;27.05;15.20;;;;;;;;;;5091788;28;20218;-61
2022/03/26 01:44:13;;;;;;;31.70;16.55;;;;;;;;;;5091597;28;20526;-61
2022/03/26 01:46:45;;;;;;;30.42;16.52;;;;;;;;;;5091847;28;20111;-62
2022/03/26 01:49:11;;;;;;;30.10;15.90;;;;;;;;;;5091440;28;20131;-61
2022/03/26 01:51:37;;;;;;;36.55;16.92;;;;;;;;;;5091405;28;20043;-61
2022/03/26 01:54:03;;;;;;;34.22;17.88;;;;;;;;;;5091380;28;20151;-61
2022/03/26 01:56:30;;;;;;;29.55;16.42;;;;;;;;;;5091278;28;20044;-60
2022/03/26 01:58:56;;;;;;;32.72;17.83;;;;;;;;;;5091102;28;20043;-61
2022/03/26 02:01:22;;;;;;;35.63;17.02;;;;;;;;;;5091429;28;20090;-61
2022/03/26 02:03:49;;;;;;;31.70;16.13;;;;;;;;;;5091216;28;20067;-61
2022/03/26 02:06:15;;;;;;;31.42;16.33;;;;;;;;;;5091046;28;20032;-61
2022/03/26 02:08:41;;;;;;;31.40;18.58;;;;;;;;;;5091290;28;20537;-61
2022/03/26 02:11:07;;;;;;;36.15;18.65;;;;;;;;;;5090724;28;20521;-61
2022/03/26 02:13:49;;;;;;;39.47;20.27;;;;;;;;;;5091030;28;20117;-61
2022/03/26 02:16:15;;;;;;;35.20;20.35;;;;;;;;;;5090961;28;20042;-61
2022/03/26 02:18:41;;;;;;;36.03;20.38;;;;;;;;;;5090917;28;20040;-61
2022/03/26 02:21:08;;;;;;;35.70;18.15;;;;;;;;;;5090822;28;20031;-61
2022/03/26 02:23:34;;;;;;;33.13;18.27;;;;;;;;;;5091089;28;20085;-61
2022/03/26 02:26:00;;;;;;;30.13;16.85;;;;;;;;;;5090907;28;20036;-61
2022/03/26 02:28:26;;;;;;;30.95;16.77;;;;;;;;;;5090880;28;20093;-61
2022/03/26 02:30:52;;;;;;;32.58;16.65;;;;;;;;;;5090892;28;20039;-61
2022/03/26 02:33:18;;;;;;;33.05;18.23;;;;;;;;;;5091022;28;20082;-60
2022/03/26 02:35:45;;;;;;;33.80;18.20;;;;;;;;;;5090934;28;20137;-62
2022/03/26 02:38:11;;;;;;;29.33;16.00;;;;;;;;;;5090548;28;20043;-61
2022/03/26 02:40:37;;;;;;;31.23;16.40;;;;;;;;;;5090264;28;20168;-61
2022/03/26 02:43:03;;;;;;;34.80;17.05;;;;;;;;;;5090968;28;20032;-61
2022/03/26 02:45:29;;;;;;;34.00;18.08;;;;;;;;;;5090717;28;20126;-61
2022/03/26 02:47:56;;;;;;;35.33;17.52;;;;;;;;;;5090651;28;20119;-61
2022/03/26 02:50:22;;;;;;;32.15;16.58;;;;;;;;;;5090629;28;20516;-61
2022/03/26 02:52:50;;;;;;;40.22;17.90;;;;;;;;;;5090428;28;20072;-61
2022/03/26 02:55:17;;;;;;;44.75;22.42;;;;;;;;;;5089675;28;20075;-61
2022/03/26 02:57:46;;;;;;;43.67;22.40;;;;;;;;;;5090766;28;20439;-61
2022/03/26 03:00:13;;;;;;;40.05;20.65;;;;;;;;;;5090471;28;20075;-62
2022/03/26 03:02:40;;;;;;;36.30;18.92;;;;;;;;;;5090662;28;20042;-61
2022/03/26 03:05:06;;;;;;;37.15;18.77;;;;;;;;;;5090793;28;20407;-62
2022/03/26 03:07:32;;;;;;;36.83;19.02;;;;;;;;;;5095389;28;20027;-61
2022/03/26 03:09:59;;;;;;;36.83;18.95;;;;;;;;;;5097242;28;20096;-61
2022/03/26 03:12:26;;;;;;;37.00;18.75;;;;;;;;;;5097062;28;20052;-61
2022/03/26 03:14:53;;;;;;;36.03;19.23;;;;;;;;;;5097208;28;20043;-62
2022/03/26 03:17:19;;;;;;;34.13;18.48;;;;;;;;;;5097185;28;20055;-60
2022/03/26 03:19:45;;;;;;;31.75;17.23;;;;;;;;;;5097126;28;20040;-61
2022/03/26 03:22:11;;;;;;;31.77;16.73;;;;;;;;;;5096888;28;20424;-61
2022/03/26 03:24:38;;;;;;;34.55;15.85;;;;;;;;;;5097460;28;20032;-61
2022/03/26 03:27:04;;;;;;;33.22;16.75;;;;;;;;;;5097450;28;20028;-61
2022/03/26 03:29:30;;;;;;;34.30;16.85;;;;;;;;;;5097083;28;20126;-60
2022/03/26 03:31:56;;;;;;;33.67;17.73;;;;;;;;;;5096976;28;20043;-61
2022/03/26 03:34:23;;;;;;;38.70;18.33;;;;;;;;;;5097203;28;20036;-61
2022/03/26 03:36:49;;;;;;;36.05;18.40;;;;;;;;;;5096940;28;20040;-61
2022/03/26 03:39:15;;;;;;;40.95;18.65;;;;;;;;;;5097066;28;20043;-60
2022/03/26 03:41:41;;;;;;;37.22;18.73;;;;;;;;;;5097083;28;20031;-61
2022/03/26 03:44:07;;;;;;;38.83;18.42;;;;;;;;;;5097342;28;20036;-60
2022/03/26 03:46:33;;;;;;;37.03;18.40;;;;;;;;;;5096948;28;20552;-61
2022/03/26 03:49:00;;;;;;;42.92;21.00;;;;;;;;;;5096909;28;20040;-61
2022/03/26 03:51:26;;;;;;;44.88;21.98;;;;;;;;;;5096556;28;20043;-61
2022/03/26 03:53:52;;;;;;;38.58;19.80;;;;;;;;;;5096850;28;20501;-60
2022/03/26 03:56:19;;;;;;;40.03;20.38;;;;;;;;;;5093166;28;20126;-61
2022/03/26 03:58:45;;;;;;;41.03;20.20;;;;;;;;;;5096840;28;20089;-61
2022/03/26 04:01:11;;;;;;;42.38;20.15;;;;;;;;;;5096379;28;20068;-61
2022/03/26 04:03:37;;;;;;;42.60;21.52;;;;;;;;;;5096426;28;20068;-60
2022/03/26 04:06:03;;;;;;;43.30;20.23;;;;;;;;;;5096514;28;20066;-62
2022/03/26 04:08:29;;;;;;;37.45;19.67;;;;;;;;;;5096397;28;20051;-61
2022/03/26 04:10:56;;;;;;;43.55;18.20;;;;;;;;;;5096489;28;20043;-61
2022/03/26 04:13:22;;;;;;;36.55;19.23;;;;;;;;;;5096029;28;20052;-61
2022/03/26 04:15:48;;;;;;;37.72;19.95;;;;;;;;;;5096416;28;20039;-60
2022/03/26 04:18:14;;;;;;;35.08;18.88;;;;;;;;;;5095311;28;20386;-61
2022/03/26 04:20:40;;;;;;;39.28;19.13;;;;;;;;;;5091686;28;20032;-60
2022/03/26 04:23:06;;;;;;;38.30;20.27;;;;;;;;;;5093160;28;20124;-63
2022/03/26 04:25:32;;;;;;;31.50;17.88;;;;;;;;;;5092777;28;20441;-61
2022/03/26 04:27:58;;;;;;;33.92;17.73;;;;;;;;;;5093073;28;20028;-63
2022/03/26 04:30:25;;;;;;;34.13;17.90;;;;;;;;;;5093245;28;20505;-61
2022/03/26 04:32:51;;;;;;;34.90;18.30;;;;;;;;;;5092627;28;20113;-61
2022/03/26 04:35:17;;;;;;;37.50;19.15;;;;;;;;;;5092933;28;20474;-60
2022/03/26 04:37:44;;;;;;;38.35;18.92;;;;;;;;;;5092287;28;20410;-61
2022/03/26 04:40:11;;;;;;;37.88;19.65;;;;;;;;;;5092805;28;20391;-61
2022/03/26 04:42:37;;;;;;;36.08;19.10;;;;;;;;;;5092671;28;20040;-61
2022/03/26 04:45:04;;;;;;;34.38;18.10;;;;;;;;;;5093056;28;20050;-61
2022/03/26 04:47:30;;;;;;;35.95;17.08;;;;;;;;;;5093022;28;20040;-61
2022/03/26 04:49:56;;;;;;;36.90;17.88;;;;;;;;;;5092625;28;20043;-61
2022/03/26 04:52:22;;;;;;;40.20;19.75;;;;;;;;;;5093090;28;20092;-61
2022/03/26 04:54:48;;;;;;;44.20;21.13;;;;;;;;;;5092558;28;20040;-61
2022/03/26 04:57:17;;;;;;;45.92;20.80;;;;;;;;;;5092651;28;20042;-62
2022/03/26 04:59:43;;;;;;;42.70;21.80;;;;;;;;;;5092689;28;20079;-61
2022/03/26 05:02:09;;;;;;;45.15;22.73;;;;;;;;;;5092497;28;20032;-61
2022/03/26 05:04:35;;;;;;;40.20;20.23;;;;;;;;;;5092888;28;20039;-60
2022/03/26 05:07:45;;;;;;;41.05;19.23;;;;;;;;;;5092792;28;20509;-61
2022/03/26 05:09:47;;;;;;;35.30;17.20;;;;;;;;;;5092349;28;20040;-60
2022/03/26 05:12:13;;;;;;;32.20;17.55;;;;;;;;;;5092403;28;20135;-61
2022/03/26 05:14:39;;;;;;;32.17;17.67;;;;;;;;;;5092164;28;20059;-60
2022/03/26 05:17:05;;;;;;;34.45;17.33;;;;;;;;;;5092445;28;20040;-61
2022/03/26 05:19:31;;;;;;;34.35;18.15;;;;;;;;;;5092420;28;20083;-61
2022/03/26 05:21:57;;;;;;;37.85;18.73;;;;;;;;;;5092300;28;20460;-61
2022/03/26 05:24:23;;;;;;;39.15;19.55;;;;;;;;;;5090864;28;20130;-61
2022/03/26 05:26:50;;;;;;;42.33;21.40;;;;;;;;;;5092047;28;20059;-60
2022/03/26 05:29:16;;;;;;;40.20;19.38;;;;;;;;;;5092025;28;20393;-60
2022/03/26 05:31:42;;;;;;;47.60;22.67;;;;;;;;;;5092310;28;20456;-60
2022/03/26 05:34:08;;;;;;;45.85;21.83;;;;;;;;;;5092339;28;20039;-61
2022/03/26 05:36:34;;;;;;;42.55;19.30;;;;;;;;;;5092183;28;20036;-60
2022/03/26 05:39:00;;;;;;;40.30;19.85;;;;;;;;;;5091685;28;20427;-60
2022/03/26 05:41:26;;;;;;;42.55;22.42;;;;;;;;;;5091940;28;20036;-61
2022/03/26 05:43:52;;;;;;;44.50;21.98;;;;;;;;;;5091738;28;20036;-60
2022/03/26 05:46:18;;;;;;;46.85;22.77;;;;;;;;;;5091524;28;20032;-61
2022/03/26 05:48:45;;;;;;;45.30;22.75;;;;;;;;;;5088519;28;20089;-60
2022/03/26 05:51:11;;;;;;;48.90;22.85;;;;;;;;;;5091167;28;20043;-60
2022/03/26 05:53:37;;;;;;;49.65;23.83;;;;;;;;;;5091337;28;20039;-61
2022/03/26 05:56:03;;;;;;;52.30;23.70;;;;;;;;;;5091140;28;20084;-61
2022/03/26 05:58:29;;;;;;;44.42;22.83;;;;;;;;;;5089824;28;20199;-60
2022/03/26 06:00:55;;;;;;;46.13;23.17;;;;;;;;;;5091294;28;20028;-61
2022/03/26 06:03:21;;;;;;;52.97;24.13;;;;;;;;;;5091135;28;20036;-61
2022/03/26 06:05:47;;;;;;;47.15;23.38;;;;;;;;;;5091113;28;20036;-60
2022/03/26 06:08:13;;;;;;;49.42;24.50;;;;;;;;;;5091066;28;20028;-60
2022/03/26 06:10:39;;;;;;;56.53;25.40;;;;;;;;;;5091351;28;20402;-62
2022/03/26 06:13:05;;;;;;;46.10;23.02;;;;;;;;;;5090616;28;20055;-61
2022/03/26 06:15:34;;;;;;;55.40;24.90;;;;;;;;;;5091134;28;20043;-60
2022/03/26 06:18:01;;;;;;;55.90;24.92;;;;;;;;;;5088739;28;20040;-63
2022/03/26 06:20:27;;;;;;;53.50;25.83;;;;;;;;;;5091089;28;20067;-63
2022/03/26 06:22:53;;;;;;;52.40;26.60;;;;;;;;;;5091145;28;20442;-60
2022/03/26 06:25:20;;;;;;;65.07;29.35;;;;;;;;;;5090692;28;20474;-61
2022/03/26 06:27:49;;;;;;;62.63;31.35;;;;;;;;;;5090970;28;20101;-61
2022/03/26 06:30:16;;;;;;;48.75;24.08;;;;;;;;;;5090830;28;20040;-61
2022/03/26 06:32:42;;;;;;;48.22;22.90;;;;;;;;;;5090520;28;20071;-60
2022/03/26 06:35:09;;;;;;;67.35;31.30;;;;;;;;;;5089495;28;20040;-61
2022/03/26 06:37:35;;;;;;;52.28;25.45;;;;;;;;;;5088915;28;20117;-60
2022/03/26 06:40:01;;;;;;;52.95;25.58;;;;;;;;;;5089263;28;20050;-61
2022/03/26 06:42:27;;;;;;;54.15;27.00;;;;;;;;;;5089730;28;20494;-60
2022/03/26 06:44:59;;;;;;;62.33;28.80;;;;;;;;;;5090943;28;20101;-60
2022/03/26 06:47:28;;;;;;;56.83;27.20;;;;;;;;;;5090576;28;20048;-60
2022/03/26 06:49:55;;;;;;;59.30;28.42;;;;;;;;;;5090808;28;20111;-61
2022/03/26 06:52:23;;;;;;;92.38;41.60;;;;;;;;;;5090759;28;20071;-61
2022/03/26 06:54:49;;;;;;;95.60;43.75;;;;;;;;;;5090813;28;20402;-60
2022/03/26 06:57:15;;;;;;;100.03;46.90;;;;;;;;;;5090701;28;20035;-60
2022/03/26 06:59:41;;;;;;;108.40;48.63;;;;;;;;;;5090569;28;20040;-60
2022/03/26 07:02:07;;;;;;;107.70;49.67;;;;;;;;;;5090469;28;20320;-61
2022/03/26 07:04:33;;;;;;;108.45;50.22;;;;;;;;;;5090509;28;20040;-61
2022/03/26 07:07:00;;;;;;;122.03;55.10;;;;;;;;;;5090569;28;20367;-60
2022/03/26 07:09:26;;;;;;;121.32;54.92;;;;;;;;;;5090220;28;20044;-61
2022/03/26 07:11:52;;;;;;;123.97;55.67;;;;;;;;;;5090239;28;20121;-62
2022/03/26 07:14:19;;;;;;;130.77;58.67;;;;;;;;;;5090522;28;20048;-60
2022/03/26 07:16:45;;;;;;;134.00;58.05;;;;;;;;;;5090444;28;20044;-61
2022/03/26 07:19:11;;;;;;;133.45;61.58;;;;;;;;;;5090295;28;20467;-60
2022/03/26 07:21:39;;;;;;;127.53;58.13;;;;;;;;;;5090432;28;20397;-61
2022/03/26 07:24:05;;;;;;;126.13;56.60;;;;;;;;;;5090502;28;20032;-61
2022/03/26 07:26:31;;;;;;;121.95;55.92;;;;;;;;;;5090250;28;21100;-61
2022/03/26 07:28:57;;;;;;;115.88;55.85;;;;;;;;;;5090582;28;20040;-61
2022/03/26 07:31:24;;;;;;;116.75;54.83;;;;;;;;;;5090213;28;20052;-61
2022/03/26 07:33:50;;;;;;;113.07;54.20;;;;;;;;;;5090475;28;20040;-62
2022/03/26 07:36:16;;;;;;;112.18;53.58;;;;;;;;;;5090194;28;20126;-61
2022/03/26 07:38:42;;;;;;;109.47;53.70;;;;;;;;;;5090065;28;20825;-61
2022/03/26 07:41:08;;;;;;;99.25;48.97;;;;;;;;;;5086242;28;20082;-61
2022/03/26 07:43:35;;;;;;;95.70;46.53;;;;;;;;;;5089759;28;20077;-61
2022/03/26 07:46:01;;;;;;;98.18;47.42;;;;;;;;;;5090133;28;20435;-61
2022/03/26 07:48:28;;;;;;;96.00;47.03;;;;;;;;;;5089927;28;20036;-61
2022/03/26 07:50:54;;;;;;;98.28;48.58;;;;;;;;;;5089994;28;20398;-61
2022/03/26 07:53:22;;;;;;;91.38;44.78;;;;;;;;;;5091802;28;20036;-61
2022/03/26 07:55:49;;;;;;;93.43;45.38;;;;;;;;;;5093964;28;20040;-61
2022/03/26 07:58:15;;;;;;;89.72;45.33;;;;;;;;;;5093846;28;20040;-61
2022/03/26 08:00:41;;;;;;;92.00;45.13;;;;;;;;;;5093505;28;20071;-61
2022/03/26 08:03:08;;;;;;;84.53;42.63;;;;;;;;;;5093507;28;20119;-61
2022/03/26 08:05:34;;;;;;;86.95;41.15;;;;;;;;;;5093224;28;20115;-61
2022/03/26 08:08:00;;;;;;;78.72;38.05;;;;;;;;;;5093477;28;20150;-62
2022/03/26 08:10:26;;;;;;;78.25;39.50;;;;;;;;;;5093612;28;20044;-61
2022/03/26 08:12:52;;;;;;;71.18;35.58;;;;;;;;;;5093329;28;20060;-62
2022/03/26 08:15:18;;;;;;;76.03;36.78;;;;;;;;;;5093631;28;20039;-62
2022/03/26 08:17:44;;;;;;;72.35;37.00;;;;;;;;;;5093188;28;20039;-62
2022/03/26 08:20:10;;;;;;;72.53;37.05;;;;;;;;;;5092660;28;20032;-62
2022/03/26 08:22:37;;;;;;;72.85;38.42;;;;;;;;;;5092820;28;20483;-63
2022/03/26 08:25:03;;;;;;;72.97;37.38;;;;;;;;;;5093424;28;20372;-61
2022/03/26 08:27:29;;;;;;;71.32;36.67;;;;;;;;;;5093284;28;20059;-61
2022/03/26 08:29:55;;;;;;;75.00;36.35;;;;;;;;;;5093436;28;20396;-61
2022/03/26 08:32:21;;;;;;;72.30;34.97;;;;;;;;;;5093153;28;20032;-61
2022/03/26 08:34:48;;;;;;;69.10;34.22;;;;;;;;;;5092874;28;20048;-61
2022/03/26 08:37:14;;;;;;;65.47;33.78;;;;;;;;;;5093400;28;20082;-61
2022/03/26 08:39:40;;;;;;;70.53;33.58;;;;;;;;;;5092882;28;20040;-62
2022/03/26 08:42:07;;;;;;;65.68;32.58;;;;;;;;;;5093112;28;20039;-61
2022/03/26 08:44:33;;;;;;;62.80;32.53;;;;;;;;;;5093073;28;20042;-62
2022/03/26 08:47:02;;;;;;;62.95;32.13;;;;;;;;;;5092903;28;20115;-61
2022/03/26 08:49:29;;;;;;;66.93;31.73;;;;;;;;;;5092905;28;20075;-61
2022/03/26 08:51:55;;;;;;;68.05;31.60;;;;;;;;;;5092963;28;20439;-62
2022/03/26 08:54:21;;;;;;;64.05;31.42;;;;;;;;;;5093033;28;20032;-62
2022/03/26 08:56:47;;;;;;;55.13;28.80;;;;;;;;;;5092589;28;20069;-61
2022/03/26 08:59:13;;;;;;;59.15;30.42;;;;;;;;;;5092800;28;20177;-61
2022/03/26 09:01:39;;;;;;;58.50;29.08;;;;;;;;;;5092769;28;20051;-60
2022/03/26 09:04:06;;;;;;;59.40;29.65;;;;;;;;;;5091550;28;20067;-62
2022/03/26 09:06:32;;;;;;;53.80;29.02;;;;;;;;;;5092967;28;20039;-61
2022/03/26 09:08:59;;;;;;;58.42;30.20;;;;;;;;;;5074508;28;20074;-61
2022/03/26 09:11:26;;;;;;;55.40;27.45;;;;;;;;;;5092539;28;20410;-61
2022/03/26 09:13:52;;;;;;;55.03;29.13;;;;;;;;;;5092152;28;20137;-62
2022/03/26 09:16:18;;;;;;;55.83;29.63;;;;;;;;;;5092312;28;20093;-61
2022/03/26 09:18:44;;;;;;;51.25;28.40;;;;;;;;;;5092047;28;20573;-61
2022/03/26 09:21:11;;;;;;;51.85;28.70;;;;;;;;;;5092570;28;20043;-62
2022/03/26 09:23:37;;;;;;;53.55;28.85;;;;;;;;;;5092430;28;20047;-62
2022/03/26 09:26:04;;;;;;;57.47;30.42;;;;;;;;;;5091944;28;20031;-62
2022/03/26 09:28:30;;;;;;;55.33;29.85;;;;;;;;;;5092470;28;20048;-62
2022/03/26 09:30:56;;;;;;;55.05;30.08;;;;;;;;;;5092140;28;20059;-62
2022/03/26 09:33:22;;;;;;;59.92;30.30;;;;;;;;;;5087169;28;20040;-61
2022/03/26 09:35:48;;;;;;;59.65;31.10;;;;;;;;;;5091803;28;20032;-62
2022/03/26 09:38:14;;;;;;;58.83;28.60;;;;;;;;;;5091592;28;20082;-61
2022/03/26 09:40:43;;;;;;;53.50;28.20;;;;;;;;;;5091535;28;20075;-61
2022/03/26 09:43:10;;;;;;;55.45;27.58;;;;;;;;;;5091848;28;20449;-62
2022/03/26 09:45:36;;;;;;;46.08;23.92;;;;;;;;;;5091496;28;20032;-62
2022/03/26 09:48:02;;;;;;;47.00;26.08;;;;;;;;;;5091287;28;20028;-62
2022/03/26 09:50:28;;;;;;;48.72;25.27;;;;;;;;;;5091451;28;20069;-61
2022/03/26 09:52:56;;;;;;;50.33;23.30;;;16.60;99.90;;;;;;5091566;28;20119;-61
2022/03/26 09:55:22;;;;;;;47.90;22.92;;;;;;;;;;5091469;28;20506;-62
2022/03/26 09:57:48;;;;;;;43.00;22.60;;;16.80;99.90;;;;;;5091483;28;20051;-62
2022/03/26 10:00:15;;;;;;;39.47;21.38;;;;;;;;;;5091225;28;20036;-62
2022/03/26 10:02:41;;;;;;;46.70;21.35;;;;;;;;;;5091467;28;20115;-62
2022/03/26 10:05:12;;;;;;;45.78;21.45;;;;;;;;;;5091024;28;20028;-62
2022/03/26 10:07:38;;;;;;;36.13;19.80;;;;;;;;;;5090898;28;20036;-63
2022/03/26 10:10:04;;;;;;;42.55;21.23;;;;;;;;;;5091599;28;20079;-62
2022/03/26 10:12:30;;;;;;;32.63;18.95;;;;;;;;;;5088660;28;20048;-62
2022/03/26 10:15:04;;;;;;;33.70;19.95;;;17.40;99.90;;;;;;5091293;28;20043;-62
2022/03/26 10:17:35;;;;;;;35.45;20.02;;;17.60;99.90;;;;;;5091512;28;20032;-63
2022/03/26 10:20:04;;;;;;;35.42;19.98;;;17.60;99.90;;;;;;5091414;28;20032;-61
2022/03/26 10:22:45;;;;;;;36.10;19.33;;;17.80;99.90;;;;;;5091302;28;20040;-62
2022/03/26 10:25:12;;;;;;;33.92;19.90;;;;;;;;;;5091031;28;20036;-61
2022/03/26 10:27:44;;;;;;;35.97;19.83;;;18.40;99.90;;;;;;5091250;28;20098;-62
2022/03/26 10:30:14;;;;;;;34.20;19.63;;;18.20;99.90;;;;;;5091064;28;20040;-62
2022/03/26 10:32:49;;;;;;;29.23;18.27;;;18.60;99.90;;;;;;5091111;28;20040;-62
2022/03/26 10:35:18;;;;;;;37.50;21.90;;;;;;;;;;5091093;28;20472;-62
2022/03/26 10:37:44;;;;;;;35.47;20.17;;;;;;;;;;5090789;28;20117;-62
2022/03/26 10:40:37;;;;;;;32.40;19.65;;;;;;;;;;5091121;28;20513;-62
2022/03/26 10:43:13;;;;;;;28.17;17.00;;;;;;;;;;5087556;28;20055;-62
2022/03/26 10:45:45;;;;;;;23.52;16.00;;;;;;;;;;5090969;28;20085;-62
2022/03/26 10:48:12;;;;;;;26.00;15.13;;;;;;;;;;5089639;28;20040;-61
2022/03/26 10:50:38;;;;;;;28.50;16.20;;;;;;;;;;5090628;28;20040;-62
2022/03/26 10:53:05;;;;;;;26.27;15.18;;;;;;;;;;5091181;28;20430;-62
2022/03/26 10:55:31;;;;;;;25.20;16.52;;;;;;;;;;5089648;28;20051;-62
2022/03/26 10:57:58;;;;;;;23.30;15.23;;;;;;;;;;5090858;28;20036;-62
2022/03/26 11:00:24;;;;;;;22.35;14.65;;;;;;;;;;5090387;28;20402;-62
2022/03/26 11:02:50;;;;;;;25.58;15.40;;;;;;;;;;5090593;28;20036;-63
2022/03/26 11:05:16;;;;;;;29.33;16.73;;;;;;;;;;5090976;28;20059;-61
2022/03/26 11:07:42;;;;;;;27.35;15.68;;;;;;;;;;5089152;28;20115;-62
2022/03/26 11:10:11;;;;;;;25.67;17.13;;;20.50;99.90;;;;;;5090591;28;20043;-62
2022/03/26 11:12:45;;;;;;;29.30;17.70;;;20.50;99.90;;;;;;5090210;28;20546;-62
2022/03/26 11:15:15;;;;;;;30.35;17.17;;;;;;;;;;5090520;28;20552;-62
2022/03/26 11:17:59;;;;;;;28.95;17.98;;;20.70;99.90;;;;;;5090137;28;20079;-62
2022/03/26 11:20:32;;;;;;;25.73;16.83;;;;;;;;;;5090533;28;20051;-62
2022/03/26 11:23:04;;;;;;;23.70;15.25;;;;;;;;;;5087825;28;20048;-62
2022/03/26 11:25:45;;;;;;;22.38;15.60;;;;;;;;;;5089248;28;20437;-62
2022/03/26 11:28:30;;;;;;;24.50;15.90;;;;;;;;;;5090921;28;20093;-62
2022/03/26 11:31:28;;;;;;;22.10;15.40;;;21.10;99.90;;;;;;5094037;28;20073;-63
2022/03/26 11:34:05;;;;;;;21.60;14.82;;;;;;;;;;5094437;28;20493;-62
2022/03/26 11:36:32;;;;;;;22.90;15.15;;;;;;;;;;5094267;28;20059;-62
2022/03/26 11:39:13;;;;;;;20.42;14.40;;;21.10;99.90;;;;;;5093775;28;20067;-62
2022/03/26 11:41:40;;;;;;;22.35;14.52;;;;;;;;;;5094029;28;20109;-62
2022/03/26 11:44:07;;;;;;;22.42;14.63;;;;;;;;;;5093694;28;20040;-62
2022/03/26 11:52:20;;;;;;;19.98;13.13;;;21.80;99.10;;;;;;5093950;28;20052;-63
2022/03/26 11:54:47;;;;;;;17.40;11.95;;;;;;;;;;5093907;28;20433;-62
2022/03/26 11:57:22;;;;;;;18.08;12.48;;;21.50;99.00;;;;;;5093385;28;20376;-62
2022/03/26 11:59:49;;;;;;;15.88;11.43;;;;;;;;;;5092241;28;20048;-62
2022/03/26 12:02:35;;;;;;;12.93;10.10;;;21.40;97.50;;;;;;5093181;28;20039;-62
2022/03/26 12:08:35;;;;;;;16.20;11.15;;;21.20;97.80;;;;;;5093925;28;20681;-62
2022/03/26 12:11:02;;;;;;;15.35;10.68;;;;;;;;;;5093601;28;20036;-62
2022/03/26 12:13:32;;;;;;;14.75;10.10;;;;;;;;;;5093622;28;20119;-62
2022/03/26 12:16:03;;;;;;;17.02;10.32;;;21.40;98.90;;;;;;5093468;28;20044;-63
2022/03/26 12:18:37;;;;;;;14.43;10.32;;;21.30;97.10;;;;;;5093348;28;20060;-62
2022/03/26 12:21:18;;;;;;;12.48;10.20;;;21.10;97.20;;;;;;5093477;28;20118;-62
2022/03/26 12:23:44;;;;;;;14.82;8.57;;;;;;;;;;5093525;28;20039;-62
2022/03/26 12:26:10;;;;;;;13.15;9.50;;;;;;;;;;5093229;28;20452;-62
2022/03/26 12:28:41;;;;;;;12.85;8.80;;;21.00;98.20;;;;;;5093788;28;20032;-62
2022/03/26 12:31:08;;;;;;;11.60;8.30;;;;;;;;;;5093444;28;20055;-62
2022/03/26 12:33:46;;;;;;;14.07;8.65;;;;;;;;;;5093435;28;20089;-62
2022/03/26 12:36:13;;;;;;;17.70;8.38;;;;;;;;;;5093088;28;20115;-62
2022/03/26 12:38:39;;;;;;;14.43;8.32;;;;;;;;;;5092897;28;20121;-63
2022/03/26 12:41:07;;;;;;;11.43;7.78;;;20.90;98.80;;;;;;5092472;28;20040;-63
2022/03/26 12:43:34;;;;;;;10.50;7.25;;;;;;;;;;5093231;28;20474;-62
2022/03/26 12:46:01;;;;;;;11.90;7.35;;;;;;;;;;5091860;28;20086;-61
2022/03/26 12:48:29;;;;;;;12.45;7.95;;;;;;;;;;5093105;28;20079;-62
2022/03/26 12:50:59;;;;;;;10.25;7.82;;;;;;;;;;5093038;28;20392;-62
2022/03/26 12:53:25;;;;;;;8.55;7.13;;;;;;;;;;5091488;28;20040;-62
2022/03/26 12:55:57;;;;;;;9.05;6.78;;;21.20;98.20;;;;;;5093182;28;20249;-62
2022/03/26 13:01:10;;;;;;;9.55;6.47;;;;;;;;;;5092726;28;20048;-62
2022/03/26 13:03:36;;;;;;;12.15;6.97;;;;;;;;;;5092564;28;20131;-61
2022/03/26 13:06:10;;;;;;;8.35;6.03;;;23.20;96.60;;;;;;5092737;28;20123;-62
2022/03/26 13:08:36;;;;;;;10.50;6.75;;;;;;;;;;5092431;28;20051;-62
2022/03/26 13:11:10;;;;;;;10.18;6.65;;;24.00;96.40;;;;;;5092620;28;20079;-62
2022/03/26 13:14:03;;;;;;;8.95;5.80;;;24.50;96.10;;;;;;5092679;28;20062;-62
2022/03/26 13:16:34;;;;;;;10.15;6.13;;;24.00;94.80;;;;;;5085502;28;20063;-62
2022/03/26 13:19:04;;;;;;;7.88;5.38;;;;;;;;;;5091543;28;20044;-62
2022/03/26 13:21:35;;;;;;;8.30;5.63;;;24.50;93.90;;;;;;5091829;28;20360;-62
2022/03/26 13:24:03;;;;;;;9.27;5.82;;;24.60;94.40;;;;;;5091890;28;20040;-62
2022/03/26 13:26:59;;;;;;;8.45;6.00;;;25.40;93.50;;;;;;5091812;28;20110;-62
2022/03/26 13:29:27;;;;;;;7.93;5.43;;;24.60;92.50;;;;;;5091756;28;20051;-62
2022/03/26 13:31:59;;;;;;;8.20;6.00;;;24.00;92.30;;;;;;5092080;28;20036;-63
2022/03/26 13:34:31;;;;;;;7.38;5.97;;;23.70;92.90;;;;;;5091602;28;20075;-62
2022/03/26 13:37:13;;;;;;;8.50;5.87;;;23.70;93.10;;;;;;5091576;28;20044;-62
2022/03/26 13:39:40;;;;;;;;;;;23.20;93.70;;;;;;5092283;28;20298;-62
2022/03/26 13:42:15;;;;;;;8.52;5.82;;;;;;;;;;5091760;28;19997;-63
2022/03/26 13:44:43;;;;;;;7.53;5.20;;;23.10;93.60;;;;;;5091864;28;20028;-62
2022/03/26 13:47:18;;;;;;;5.60;4.78;;;23.30;93.30;;;;;;5091579;28;20079;-62
2022/03/26 13:49:44;;;;;;;6.43;5.43;;;23.10;97.30;;;;;;5091358;28;20044;-63
2022/03/26 13:52:24;;;;;;;8.60;5.18;;;;;;;;;;5091084;28;20067;-62
2022/03/26 13:54:50;;;;;;;7.00;4.25;;;;;;;;;;5091437;28;20032;-62
2022/03/26 13:57:16;;;;;;;6.90;4.40;;;;;;;;;;5091754;28;20044;-62
2022/03/26 13:59:43;;;;;;;6.90;4.18;;;;;;;;;;5091724;28;20485;-62
2022/03/26 14:02:13;;;;;;;6.35;4.10;;;;;;;;;;5091613;28;20031;-62
2022/03/26 14:04:39;;;;;;;5.88;3.72;;;;;;;;;;5091572;28;20105;-62
2022/03/26 14:07:07;;;;;;;5.20;3.90;;;26.80;90.10;;;;;;5091602;28;20079;-63
2022/03/26 14:09:34;;;;;;;4.25;3.20;;;;;;;;;;5090275;28;20071;-62
2022/03/26 14:12:00;;;;;;;5.13;3.47;;;;;;;;;;5091427;28;20060;-62
2022/03/26 14:14:26;;;;;;;4.78;3.42;;;29.40;90.70;;;;;;5091429;28;20064;-62
2022/03/26 14:16:52;;;;;;;6.28;3.53;;;;;;;;;;5091213;28;20113;-63
2022/03/26 14:19:18;;;;;;;4.85;3.17;;;;;;;;;;5091410;28;20051;-63